Time;durP1;ratioP1;P1;durP2;ratioP2;P2;SDS_P1;SDS_P2;PMS_P1;PMS_P2;Temp;Humidity;BMP_temperature;BMP_pressure;BME280_temperature;BME280_humidity;BME280_pressure;Samples;Min_cycle;Max_cycle;Signal;HPM_P1;HPM_P2
2021/08/06 00:01:24;;;;;;;2.65;0.82;;;;;;;;;;4998587;28;20038;-49
2021/08/06 00:03:51;;;;;;;1.88;0.85;;;;;;;;;;5004222;28;20391;-48
2021/08/06 00:06:37;;;;;;;2.58;0.80;;;;;;;;;;5003480;28;20426;-45
2021/08/06 00:09:04;;;;;;;7.38;1.00;;;;;;;;;;5013697;28;20103;-45
2021/08/06 00:11:31;;;;;;;7.88;1.70;;;;;;;;;;5006440;28;20041;-50
2021/08/06 00:13:58;;;;;;;3.78;1.65;;;;;;;;;;4994185;28;20034;-45
2021/08/06 00:16:25;;;;;;;3.38;0.95;;;;;;;;;;5005192;28;20065;-47
2021/08/06 00:18:52;;;;;;;5.13;0.95;;;;;;;;;;4994644;28;20041;-48
2021/08/06 00:21:18;;;;;;;5.75;0.82;;;;;;;;;;5008293;28;20042;-48
2021/08/06 00:23:46;;;;;;;2.90;1.00;;;;;;;;;;5006669;28;20038;-45
2021/08/06 00:26:12;;;;;;;3.17;1.00;;;;;;;;;;5008608;28;20131;-50
2021/08/06 00:28:40;;;;;;;0.95;0.80;;;;;;;;;;5004377;28;20054;-50
2021/08/06 00:31:08;;;;;;;4.55;0.80;;;;;;;;;;5005181;28;20034;-47
2021/08/06 00:33:35;;;;;;;1.77;0.88;;;;;;;;;;4998603;28;20069;-47
2021/08/06 00:36:01;;;;;;;1.10;0.77;;;;;;;;;;5003892;28;20544;-48
2021/08/06 00:38:28;;;;;;;1.20;0.80;;;;;;;;;;5009793;28;20044;-50
2021/08/06 00:40:55;;;;;;;5.03;0.80;;;;;;;;;;5007902;28;20042;-48
2021/08/06 00:43:22;;;;;;;4.75;0.90;;;;;;;;;;5009007;28;20500;-46
2021/08/06 00:45:49;;;;;;;2.58;0.90;;;;;;;;;;5002804;28;20096;-47
2021/08/06 00:48:16;;;;;;;1.98;0.90;;;;;;;;;;5007501;28;20537;-46
2021/08/06 00:50:42;;;;;;;2.92;1.45;;;;;;;;;;5008505;28;20518;-48
2021/08/06 00:53:09;;;;;;;2.00;0.90;;;;;;;;;;5002572;28;20046;-46
2021/08/06 00:55:36;;;;;;;2.15;1.10;;;;;;;;;;5002412;28;20038;-47
2021/08/06 00:58:03;;;;;;;1.70;0.90;;;;;;;;;;5007890;28;20046;-50
2021/08/06 01:00:30;;;;;;;3.70;1.00;;;;;;;;;;5003124;28;20517;-48
2021/08/06 01:03:03;;;;;;;2.03;1.00;;;;;;;;;;4993982;28;20125;-48
2021/08/06 01:05:31;;;;;;;4.45;0.98;;;;;;;;;;5008876;28;20045;-48
2021/08/06 01:08:04;;;;;;;1.95;0.90;;;;;;;;;;5006984;28;20049;-47
2021/08/06 01:10:41;;;;;;;4.15;1.00;;;;;;;;;;5004427;28;20382;-46
2021/08/06 01:13:09;;;;;;;4.72;1.00;;;;;;;;;;5003191;28;20041;-46
2021/08/06 01:15:36;;;;;;;1.23;1.17;;;;;;;;;;5002681;28;20502;-47
2021/08/06 01:18:05;;;;;;;3.40;0.93;;;;;;;;;;5007108;28;20422;-47
2021/08/06 01:20:35;;;;;;;2.45;0.85;;;;;;;;;;5006411;28;20072;-46
2021/08/06 01:23:03;;;;;;;3.25;1.10;;;;;;;;;;5001228;28;20037;-46
2021/08/06 01:25:39;;;;;;;4.03;1.00;;;;;;;;;;5001739;28;20153;-45
2021/08/06 01:28:05;;;;;;;2.78;0.90;;;;;;;;;;5000135;28;20356;-47
2021/08/06 01:30:32;;;;;;;2.58;1.08;;;;;;;;;;5001484;28;20108;-50
2021/08/06 01:32:59;;;;;;;1.88;0.90;;;;;;;;;;5003330;28;20067;-48
2021/08/06 01:35:26;;;;;;;1.27;0.85;;;;;;;;;;5000786;28;20046;-49
2021/08/06 01:37:52;;;;;;;3.05;1.10;;;;;;;;;;5003547;28;20065;-46
2021/08/06 01:40:19;;;;;;;2.47;1.10;;;;;;;;;;5002182;28;20040;-49
2021/08/06 01:43:06;;;;;;;5.07;1.00;;;;;;;;;;5001097;28;20445;-46
2021/08/06 01:45:37;;;;;;;1.98;1.00;;;;;;;;;;5011641;28;20149;-48
2021/08/06 01:48:05;;;;;;;3.63;0.80;;;;;;;;;;4999849;28;20482;-46
2021/08/06 01:50:36;;;;;;;2.30;1.00;;;;;;;;;;5012424;28;20045;-50
2021/08/06 01:53:04;;;;;;;3.50;0.80;;;;;;;;;;5009645;28;20491;-48
2021/08/06 01:55:41;;;;;;;2.42;1.10;;;;;;;;;;5003545;28;20042;-49
2021/08/06 01:58:10;;;;;;;4.82;0.98;;;;;;;;;;5011271;28;20066;-47
2021/08/06 02:00:37;;;;;;;2.03;0.90;;;;;;;;;;5011629;28;20121;-46
2021/08/06 02:03:05;;;;;;;3.22;1.10;;;;;;;;;;5004669;28;20121;-46
2021/08/06 02:05:32;;;;;;;3.05;0.90;;;;;;;;;;5007712;28;20073;-46
2021/08/06 02:08:00;;;;;;;1.63;0.80;;;;;;;;;;5006512;28;20513;-47
2021/08/06 02:10:28;;;;;;;1.25;0.93;;;;;;;;;;5009626;28;20034;-50
2021/08/06 02:12:55;;;;;;;2.45;0.80;;;;;;;;;;5009651;28;20044;-46
2021/08/06 02:15:22;;;;;;;1.02;0.90;;;;;;;;;;5010206;28;20132;-48
2021/08/06 02:17:50;;;;;;;5.28;0.90;;;;;;;;;;5005881;28;20074;-52
2021/08/06 02:20:17;;;;;;;3.40;0.88;;;;;;;;;;5005735;28;20034;-48
2021/08/06 02:22:45;;;;;;;1.58;0.80;;;;;;;;;;5011594;28;20038;-45
2021/08/06 02:25:13;;;;;;;3.42;0.90;;;;;;;;;;5009746;28;20104;-46
2021/08/06 02:27:42;;;;;;;5.43;1.00;;;;;;;;;;5011983;28;20072;-47
2021/08/06 02:30:10;;;;;;;1.88;0.80;;;;;;;;;;5010826;28;20065;-50
2021/08/06 02:32:37;;;;;;;2.33;1.40;;;;;;;;;;5011617;28;20042;-49
2021/08/06 02:35:05;;;;;;;1.27;0.80;;;;;;;;;;5004273;28;20390;-45
2021/08/06 02:37:37;;;;;;;3.80;0.88;;;;;;;;;;5010536;28;20132;-45
2021/08/06 02:40:05;;;;;;;2.22;0.98;;;;;;;;;;5009003;28;20053;-47
2021/08/06 02:42:35;;;;;;;4.53;0.75;;;;;;;;;;5004773;28;20438;-47
2021/08/06 02:45:03;;;;;;;3.50;1.15;;;;;;;;;;5009007;28;20671;-49
2021/08/06 02:47:30;;;;;;;1.15;0.90;;;;;;;;;;5001678;28;20118;-48
2021/08/06 02:49:56;;;;;;;1.83;0.90;;;;;;;;;;5005018;28;20038;-50
2021/08/06 02:52:23;;;;;;;2.45;0.98;;;;;;;;;;4998194;28;20038;-48
2021/08/06 02:54:50;;;;;;;4.43;1.23;;;;;;;;;;5010617;28;20088;-48
2021/08/06 02:57:18;;;;;;;1.73;0.80;;;;;;;;;;5009695;28;20062;-47
2021/08/06 02:59:44;;;;;;;2.40;1.10;;;;;;;;;;5000837;28;20049;-49
2021/08/06 03:02:11;;;;;;;2.92;1.02;;;;;;;;;;5005250;28;20104;-51
2021/08/06 03:04:38;;;;;;;2.90;0.80;;;;;;;;;;5008467;28;20037;-47
2021/08/06 03:07:05;;;;;;;1.75;0.90;;;;;;;;;;4997385;28;20046;-49
2021/08/06 03:09:31;;;;;;;1.98;0.80;;;;;;;;;;5019988;28;20089;-47
2021/08/06 03:11:58;;;;;;;1.67;1.38;;;;;;;;;;5009971;28;20046;-48
2021/08/06 03:14:25;;;;;;;3.47;0.90;;;;;;;;;;5010118;28;20026;-46
2021/08/06 03:16:52;;;;;;;1.33;1.15;;;;;;;;;;5003973;28;20038;-46
2021/08/06 03:19:19;;;;;;;1.77;0.90;;;;;;;;;;5011784;28;20034;-49
2021/08/06 03:21:45;;;;;;;2.03;0.82;;;;;;;;;;5007795;28;20045;-48
2021/08/06 03:24:12;;;;;;;1.05;0.80;;;;;;;;;;4996321;28;20042;-48
2021/08/06 03:26:39;;;;;;;2.60;0.80;;;;;;;;;;5003681;28;20069;-50
2021/08/06 03:29:05;;;;;;;2.25;0.90;;;;;;;;;;5007264;28;20057;-47
2021/08/06 03:31:32;;;;;;;3.40;1.27;;;;;;;;;;4999126;28;20053;-48
2021/08/06 03:33:59;;;;;;;2.78;1.33;;;;;;;;;;5009626;28;20038;-49
2021/08/06 03:36:26;;;;;;;2.17;0.80;;;;;;;;;;4996440;28;20035;-49
2021/08/06 03:38:53;;;;;;;4.22;0.90;;;;;;;;;;5002707;28;20073;-49
2021/08/06 03:41:19;;;;;;;2.55;1.00;;;;;;;;;;5009381;28;20093;-47
2021/08/06 03:43:46;;;;;;;5.97;1.35;;;;;;;;;;4993958;28;20053;-50
2021/08/06 03:46:13;;;;;;;4.18;1.70;;;;;;;;;;5011302;28;20037;-52
2021/08/06 03:48:40;;;;;;;3.72;1.00;;;;;;;;;;5012650;28;20037;-49
2021/08/06 03:51:07;;;;;;;3.30;0.90;;;;;;;;;;5000641;28;20375;-47
2021/08/06 03:53:33;;;;;;;5.07;1.00;;;;;;;;;;5001948;28;20065;-49
2021/08/06 03:56:00;;;;;;;2.65;1.10;;;;;;;;;;5009952;28;20038;-48
2021/08/06 03:58:27;;;;;;;2.58;1.80;;;;;;;;;;5003611;28;20034;-48
2021/08/06 04:00:54;;;;;;;3.85;0.80;;;;;;;;;;5004800;28;20042;-50
2021/08/06 04:03:21;;;;;;;3.17;1.50;;;;;;;;;;5007613;28;20062;-49
2021/08/06 04:05:47;;;;;;;3.55;1.35;;;;;;;;;;5002939;28;20038;-49
2021/08/06 04:08:14;;;;;;;2.17;0.90;;;;;;;;;;5008201;28;20046;-46
2021/08/06 04:10:41;;;;;;;1.10;0.90;;;;;;;;;;5009639;28;20533;-48
2021/08/06 04:13:08;;;;;;;3.10;1.40;;;;;;;;;;5006487;28;20056;-47
2021/08/06 04:15:34;;;;;;;2.33;1.05;;;;;;;;;;5011144;28;20160;-49
2021/08/06 04:18:01;;;;;;;2.97;1.30;;;;;;;;;;5007600;28;20080;-48
2021/08/06 04:20:28;;;;;;;1.75;0.95;;;;;;;;;;5004929;28;20054;-49
2021/08/06 04:22:55;;;;;;;4.80;1.48;;;;;;;;;;5005459;28;20454;-46
2021/08/06 04:25:21;;;;;;;3.50;1.25;;;;;;;;;;5008331;28;20114;-45
2021/08/06 04:27:48;;;;;;;2.50;1.40;;;;;;;;;;5004423;28;20077;-49
2021/08/06 04:30:17;;;;;;;2.88;2.03;;;;;;;;;;5007561;28;20044;-49
2021/08/06 04:32:44;;;;;;;1.60;1.45;;;;;;;;;;4997583;28;20088;-49
2021/08/06 04:35:11;;;;;;;3.30;1.55;;;;;;;;;;5001691;28;20066;-48
2021/08/06 04:37:45;;;;;;;4.72;1.95;;;;;;;;;;4997260;28;20423;-50
2021/08/06 04:40:12;;;;;;;8.07;2.78;;;;;;;;;;5009138;28;20363;-50
2021/08/06 04:42:39;;;;;;;6.50;2.60;;;;;;;;;;5007648;28;20398;-48
2021/08/06 04:45:06;;;;;;;5.40;2.13;;;;;;;;;;5006176;28;20050;-49
2021/08/06 04:47:32;;;;;;;3.42;1.70;;;;;;;;;;5024829;28;20077;-48
2021/08/06 04:49:59;;;;;;;5.20;1.50;;;;;;;;;;4999520;28;20060;-49
2021/08/06 04:52:27;;;;;;;4.88;1.63;;;;;;;;;;4997708;28;20056;-50
2021/08/06 04:54:54;;;;;;;4.55;0.90;;;;;;;;;;5009148;28;20048;-46
2021/08/06 04:57:21;;;;;;;4.68;1.60;;;;;;;;;;5006154;28;20484;-47
2021/08/06 04:59:47;;;;;;;4.90;1.20;;;;;;;;;;5010069;28;20475;-50
2021/08/06 05:02:14;;;;;;;6.47;1.98;;;;;;;;;;5008475;28;20029;-49
2021/08/06 05:04:41;;;;;;;4.65;1.40;;;;;;;;;;5008572;28;20045;-48
2021/08/06 05:07:14;;;;;;;3.10;1.10;;;;;;;;;;5003418;28;20578;-49
2021/08/06 05:09:41;;;;;;;3.75;1.70;;;;;;;;;;4997060;28;20050;-51
2021/08/06 05:12:08;;;;;;;6.35;1.10;;;;;;;;;;5001710;28;20050;-49
2021/08/06 05:14:35;;;;;;;6.03;1.13;;;;;;;;;;5011193;28;20092;-49
2021/08/06 05:17:01;;;;;;;8.07;2.75;;;;;;;;;;5010474;28;20044;-50
2021/08/06 05:19:28;;;;;;;4.07;1.33;;;;;;;;;;5005318;28;20487;-46
2021/08/06 05:21:55;;;;;;;5.85;1.83;;;;;;;;;;5008853;28;20093;-46
2021/08/06 05:24:22;;;;;;;3.63;1.42;;;;;;;;;;5012991;28;20034;-50
2021/08/06 05:26:48;;;;;;;2.88;1.55;;;;;;;;;;5006678;28;20033;-54
2021/08/06 05:29:15;;;;;;;4.45;1.35;;;;;;;;;;4996167;28;20050;-54
2021/08/06 05:31:42;;;;;;;3.55;1.27;;;;;;;;;;5013643;28;20100;-54
2021/08/06 05:34:08;;;;;;;11.02;1.50;;;;;;;;;;5009955;28;20033;-54
2021/08/06 05:36:35;;;;;;;2.08;1.20;;;;;;;;;;5013318;28;20535;-54
2021/08/06 05:39:02;;;;;;;5.18;2.10;;;;;;;;;;5010466;28;20041;-54
2021/08/06 05:41:29;;;;;;;6.43;2.67;;;;;;;;;;5008721;28;20129;-54
2021/08/06 05:43:56;;;;;;;4.72;1.40;;;;;;;;;;5004614;28;20047;-53
2021/08/06 05:46:23;;;;;;;6.38;1.20;;;;;;;;;;5003691;28;20046;-55
2021/08/06 05:48:50;;;;;;;5.45;1.63;;;;;;;;;;5012924;28;20049;-53
2021/08/06 05:51:16;;;;;;;9.73;1.77;;;;;;;;;;5010586;28;20490;-52
2021/08/06 05:53:43;;;;;;;4.05;1.00;;;;;;;;;;4999301;28;20758;-54
2021/08/06 05:56:10;;;;;;;4.65;1.20;;;;;;;;;;5002498;28;20085;-53
2021/08/06 05:58:37;;;;;;;11.50;1.30;;;;;;;;;;5004988;28;20030;-53
2021/08/06 06:01:03;;;;;;;3.70;1.35;;;;;;;;;;4994453;28;20054;-54
2021/08/06 06:03:31;;;;;;;3.22;1.50;;;;;;;;;;5010113;28;20034;-54
2021/08/06 06:05:57;;;;;;;2.95;1.35;;;;;;;;;;5009680;28;20169;-54
2021/08/06 06:08:24;;;;;;;5.10;1.58;;;;;;;;;;5001699;28;20479;-54
2021/08/06 06:10:51;;;;;;;9.18;2.17;;;;;;;;;;5004691;28;20038;-54
2021/08/06 06:13:18;;;;;;;4.72;1.40;;;;;;;;;;4992564;28;20097;-53
2021/08/06 06:15:45;;;;;;;5.95;1.63;;;;;;;;;;5010015;28;20040;-52
2021/08/06 06:18:11;;;;;;;4.63;1.00;;;;;;;;;;5010932;28;20049;-53
2021/08/06 06:20:38;;;;;;;5.75;1.27;;;;;;;;;;5010685;28;20084;-54
2021/08/06 06:23:05;;;;;;;7.68;1.13;;;;;;;;;;5009487;28;20100;-54
2021/08/06 06:25:32;;;;;;;5.00;1.20;;;;;;;;;;4993498;28;20038;-54
2021/08/06 06:28:00;;;;;;;4.68;0.95;;;;;;;;;;5004774;28;20042;-54
2021/08/06 06:30:27;;;;;;;3.20;1.23;;;;;;;;;;4998695;28;20041;-54
2021/08/06 06:32:55;;;;;;;5.75;1.33;;;;;;;;;;5013133;28;20549;-53
2021/08/06 06:35:22;;;;;;;3.80;1.15;;;;;;;;;;5009252;28;20077;-54
2021/08/06 06:37:49;;;;;;;2.08;1.55;;;;;;;;;;5004012;28;20038;-53
2021/08/06 06:40:16;;;;;;;6.22;1.25;;;;;;;;;;5012318;28;20088;-54
2021/08/06 06:42:44;;;;;;;6.88;0.95;;;;;;;;;;5009940;28;20041;-54
2021/08/06 06:45:11;;;;;;;1.90;0.80;;;;;;;;;;5011238;28;20069;-53
2021/08/06 06:47:39;;;;;;;1.90;0.80;;;;;;;;;;5006438;28;20042;-54
2021/08/06 06:50:09;;;;;;;9.73;1.65;;;;;;;;;;4999889;28;20053;-53
2021/08/06 06:52:36;;;;;;;6.53;0.90;;;;;;;;;;5004723;28;20363;-53
2021/08/06 06:55:04;;;;;;;1.65;1.15;;;;;;;;;;5011297;28;20108;-54
2021/08/06 06:57:31;;;;;;;3.08;0.85;;;;;;;;;;5010509;28;20088;-54
2021/08/06 06:59:57;;;;;;;3.35;0.77;;;;;;;;;;5005646;28;20041;-54
2021/08/06 07:02:24;;;;;;;2.30;1.02;;;;;;;;;;4997912;28;20045;-53
2021/08/06 07:04:51;;;;;;;2.03;0.90;;;;;;;;;;5000614;28;20046;-54
2021/08/06 07:07:18;;;;;;;1.42;0.82;;;;;;;;;;5007799;28;20092;-53
2021/08/06 07:09:44;;;;;;;4.82;1.63;;;;;;;;;;5005852;28;20046;-53
2021/08/06 07:12:11;;;;;;;6.10;1.00;;;;;;;;;;5010200;28;20043;-53
2021/08/06 07:14:38;;;;;;;3.47;1.70;;;;;;;;;;5008736;28;20553;-54
2021/08/06 07:17:04;;;;;;;5.35;1.20;;;;;;;;;;4999473;28;20046;-54
2021/08/06 07:19:31;;;;;;;6.85;1.00;;;;;;;;;;5004237;28;20041;-54
2021/08/06 07:21:58;;;;;;;6.47;1.17;;;;;;;;;;4993299;28;20061;-54
2021/08/06 07:24:25;;;;;;;7.15;1.27;;;;;;;;;;5006928;28;20054;-54
2021/08/06 07:26:51;;;;;;;4.68;0.90;;;;;;;;;;4999596;28;20076;-53
2021/08/06 07:29:18;;;;;;;7.15;1.23;;;;;;;;;;4997187;28;20053;-54
2021/08/06 07:31:45;;;;;;;6.32;0.90;;;;;;;;;;5003143;28;20042;-54
2021/08/06 07:34:12;;;;;;;6.72;1.75;;;;;;;;;;4994268;28;20045;-54
2021/08/06 07:36:39;;;;;;;11.48;0.90;;;;;;;;;;5010689;28;20038;-53
2021/08/06 07:39:06;;;;;;;4.13;0.80;;;;;;;;;;5010205;28;20126;-54
2021/08/06 07:41:32;;;;;;;5.43;1.00;;;;;;;;;;5008191;28;20125;-54
2021/08/06 07:43:59;;;;;;;5.55;1.15;;;;;;;;;;5009610;28;20034;-54
2021/08/06 07:46:26;;;;;;;5.07;0.90;;;;;;;;;;5009142;28;20038;-55
2021/08/06 07:48:53;;;;;;;3.90;1.70;;;;;;;;;;5010315;28;20045;-54
2021/08/06 07:51:20;;;;;;;4.55;0.90;;;;;;;;;;5006580;28;20067;-54
2021/08/06 07:53:47;;;;;;;6.38;0.80;;;;;;;;;;5002918;28;20050;-54
2021/08/06 07:56:15;;;;;;;2.47;1.00;;;;;;;;;;5003832;28;20049;-53
2021/08/06 07:58:42;;;;;;;9.50;1.00;;;;;;;;;;4995295;28;20129;-55
2021/08/06 08:01:08;;;;;;;4.70;1.02;;;;;;;;;;4989857;28;20051;-55
2021/08/06 08:03:36;;;;;;;3.17;1.00;;;;;;;;;;4999471;28;20052;-54
2021/08/06 08:06:02;;;;;;;7.18;1.60;;;;;;;;;;5006772;28;20396;-54
2021/08/06 08:08:30;;;;;;;1.80;0.90;;;;;;;;;;5004177;28;20065;-54
2021/08/06 08:10:56;;;;;;;3.28;0.80;;;;;;;;;;4996761;28;20625;-53
2021/08/06 08:13:23;;;;;;;3.22;0.90;;;;;;;;;;4997973;28;20046;-53
2021/08/06 08:15:54;;;;;;;5.72;0.93;;;;;;;;;;5002760;28;20838;-53
2021/08/06 08:18:21;;;;;;;7.28;1.05;;;;;;;;;;5009916;28;20042;-55
2021/08/06 08:20:48;;;;;;;5.50;0.88;;;;;;;;;;5002891;28;20414;-55
2021/08/06 08:23:15;;;;;;;2.67;1.20;;;;;;;;;;4997357;28;20037;-54
2021/08/06 08:25:42;;;;;;;4.97;1.42;;;;;;;;;;4997883;28;20066;-55
2021/08/06 08:28:09;;;;;;;5.75;0.90;;;;;;;;;;5004808;28;20120;-53
2021/08/06 08:30:36;;;;;;;5.10;1.10;;;;;;;;;;4991957;28;20045;-54
2021/08/06 08:33:04;;;;;;;4.18;0.82;;;;;;;;;;5008397;28;20029;-53
2021/08/06 08:35:31;;;;;;;7.78;0.90;;;;;;;;;;5007773;28;20104;-55
2021/08/06 08:37:58;;;;;;;5.05;0.80;;;;;;;;;;4999401;28;20477;-54
2021/08/06 08:40:25;;;;;;;2.75;0.80;;;;;;;;;;5006009;28;20050;-55
2021/08/06 08:42:52;;;;;;;3.42;0.80;;;;;;;;;;4992671;28;20043;-53
2021/08/06 08:45:22;;;;;;;2.88;0.82;;;;;;;;;;5007941;28;20371;-54
2021/08/06 08:47:49;;;;;;;4.13;0.98;;;;;;;;;;5008233;28;20100;-55
2021/08/06 08:50:16;;;;;;;3.17;0.90;;;;;;;;;;5010178;28;20497;-55
2021/08/06 08:52:43;;;;;;;4.43;0.85;;;;;;;;;;5004570;28;20034;-54
2021/08/06 08:55:11;;;;;;;3.13;0.70;;;;;;;;;;5002408;28;20038;-54
2021/08/06 08:57:37;;;;;;;3.05;0.80;;;;;;;;;;5010782;28;20057;-55
2021/08/06 09:00:05;;;;;;;2.35;0.85;;;;;;;;;;5008834;28;20520;-55
2021/08/06 09:02:32;;;;;;;4.07;1.08;;;;;;;;;;4992371;28;20038;-54
2021/08/06 09:05:08;;;;;;;4.15;0.75;;;;;;;;;;5007914;28;20040;-55
2021/08/06 09:07:35;;;;;;;1.77;0.70;;;;;;;;;;5008134;28;20026;-54
2021/08/06 09:10:12;;;;;;;3.45;0.80;;;;;;;;;;5001181;28;20030;-55
2021/08/06 09:12:49;;;;;;;3.50;1.27;;;;;;;;;;5007434;28;20045;-55
2021/08/06 09:15:17;;;;;;;5.15;0.80;;;;;;;;;;5008715;28;20050;-55
2021/08/06 09:17:43;;;;;;;1.85;0.60;;;;;;;;;;5000448;28;20065;-54
2021/08/06 09:20:11;;;;;;;1.42;0.60;;;;;;;;;;5002881;28;20057;-54
2021/08/06 09:22:41;;;;;;;4.60;1.05;;;;;;;;;;4992821;28;20126;-55
2021/08/06 09:25:08;;;;;;;1.38;0.70;;;;;;;;;;5006439;28;20368;-55
2021/08/06 09:27:35;;;;;;;0.90;0.70;;;;;;;;;;5008834;28;20500;-55
2021/08/06 09:30:05;;;;;;;2.63;0.70;;;;;;;;;;4997005;28;20457;-54
2021/08/06 09:32:45;;;;;;;3.88;0.80;;;;;;;;;;5002257;28;20041;-55
2021/08/06 09:35:13;;;;;;;2.33;1.02;;;;;;;;;;4992452;28;20064;-53
2021/08/06 09:37:40;;;;;;;1.75;0.60;;;;;;;;;;5009101;28;20042;-55
2021/08/06 09:40:18;;;;;;;1.30;0.65;;;;;;;;;;5007580;28;20042;-54
2021/08/06 09:42:49;;;;;;;2.05;0.85;;;;;;;;;;5003393;28;20481;-54
2021/08/06 09:45:17;;;;;;;1.52;0.65;;;;;;;;;;5003126;28;20046;-54
2021/08/06 09:47:45;;;;;;;1.27;0.63;;;;;;;;;;4995097;28;20052;-54
2021/08/06 09:50:14;;;;;;;4.00;1.70;;;;;;;;;;5009414;28;20049;-55
2021/08/06 09:52:47;;;;;;;2.13;0.70;;;;;;;;;;5003179;28;20033;-54
2021/08/06 09:55:40;;;;;;;1.70;0.80;;;;;;;;;;4999947;28;20070;-54
2021/08/06 09:58:11;;;;;;;0.73;0.60;;;;;;;;;;5007597;28;20050;-55
2021/08/06 10:00:42;;;;;;;4.75;0.60;;;;;;;;;;5008433;28;20044;-55
2021/08/06 10:03:23;;;;;;;1.23;0.80;;;;;;;;;;5011346;28;20042;-54
2021/08/06 10:06:05;;;;;;;2.63;0.65;;;;;;;;;;5008787;28;20490;-56
2021/08/06 10:08:33;;;;;;;1.83;0.60;;;;;;;;;;5009035;28;20584;-54
2021/08/06 10:11:00;;;;;;;0.98;0.60;;;;;;;;;;5008251;28;20042;-54
2021/08/06 10:13:27;;;;;;;0.77;0.60;;;;;;;;;;5007359;28;20105;-55
2021/08/06 10:15:54;;;;;;;0.60;0.50;;;;;;;;;;5011184;28;20489;-54
2021/08/06 10:18:21;;;;;;;2.65;0.60;;;;;;;;;;5011378;28;20425;-54
2021/08/06 10:20:48;;;;;;;1.70;0.60;;;;;;;;;;5008028;28;20042;-55
2021/08/06 10:23:15;;;;;;;1.05;0.60;;;;;;;;;;5009807;28;20520;-55
2021/08/06 10:25:42;;;;;;;0.88;0.55;;;;;;;;;;5009326;28;20042;-55
2021/08/06 10:28:09;;;;;;;1.23;0.60;;;;;;;;;;4996206;28;20030;-55
2021/08/06 10:30:37;;;;;;;0.75;0.60;;;;;;;;;;5011879;28;20121;-55
2021/08/06 10:33:04;;;;;;;0.73;0.60;;;;;;;;;;5008596;28;20286;-55
2021/08/06 10:35:44;;;;;;;3.40;1.50;;;;;;;;;;5007118;28;20458;-55
2021/08/06 10:38:12;;;;;;;0.65;0.60;;;;;;;;;;5007621;28;20052;-55
2021/08/06 10:40:39;;;;;;;3.20;0.60;;;;;;;;;;5008035;28;20104;-56
2021/08/06 10:43:09;;;;;;;1.20;0.60;;;;;;;;;;5016820;28;20096;-56
2021/08/06 10:45:44;;;;;;;1.55;0.50;;;;;;;;;;5014137;28;20087;-55
2021/08/06 10:48:27;;;;;;;1.30;0.50;;;;;;;;;;5019651;28;20108;-55
2021/08/06 10:51:12;;;;;;;1.10;0.50;;;;;;;;;;5013524;28;20037;-56
2021/08/06 10:53:39;;;;;;;1.55;0.80;;;;;;;;;;5008953;28;20426;-55
2021/08/06 10:56:18;;;;;;;1.35;0.60;;;;;;;;;;5003941;28;20034;-55
2021/08/06 10:58:54;;;;;;;2.00;0.55;;;;;;;;;;5005252;28;20045;-55
2021/08/06 11:01:27;;;;;;;2.25;0.60;;;;;;;;;;5009148;28;20041;-56
2021/08/06 11:03:56;;;;;;;0.60;0.50;;;;;;;;;;5018949;28;20042;-56
2021/08/06 11:06:39;;;;;;;0.80;0.50;;;;;;;;;;5013479;28;20038;-55
2021/08/06 11:09:06;;;;;;;3.08;0.60;;;;;;;;;;5015034;28;20057;-54
2021/08/06 11:11:41;;;;;;;1.35;0.50;;;;;;;;;;5012226;28;20366;-55
2021/08/06 11:14:08;;;;;;;0.50;0.50;;;;;;;;;;5009782;28;20112;-55
2021/08/06 11:16:35;;;;;;;2.05;0.50;;;;;;;;;;5018254;28;20052;-54
2021/08/06 11:19:02;;;;;;;0.63;0.50;;;;;;;;;;5011731;28;20038;-55
2021/08/06 11:21:42;;;;;;;1.27;0.60;;;;;;;;;;5017012;28;20065;-55
2021/08/06 11:24:09;;;;;;;1.80;0.50;;;;;;;;;;5011437;28;20509;-55
2021/08/06 11:26:36;;;;;;;1.08;0.82;;;;;;;;;;5010486;28;20091;-55
2021/08/06 11:29:20;;;;;;;0.60;0.50;;;;;;;;;;4994509;28;20121;-55
2021/08/06 11:32:07;;;;;;;1.35;0.50;;;;;;;;;;5000485;28;20054;-55
2021/08/06 11:34:52;;;;;;;0.82;0.50;;;;;;;;;;5022201;28;20042;-55
2021/08/06 11:37:20;;;;;;;1.40;0.52;;;;;;;;;;5026881;28;20053;-55
2021/08/06 11:40:19;;;;;;;0.90;0.60;;;;;;;;;;5027820;28;20494;-48
2021/08/06 11:42:47;;;;;;;1.10;0.50;;;;;;;;;;4989938;28;20104;-49
2021/08/06 11:45:16;;;;;;;1.90;0.50;;;;;;;;;;4987199;28;20050;-50
2021/08/06 11:47:44;;;;;;;0.80;0.50;;;;;;;;;;4980727;28;20106;-48
2021/08/06 11:50:13;;;;;;;0.68;0.50;;;;;;;;;;4980051;28;20165;-47
2021/08/06 11:52:44;;;;;;;1.60;0.50;;;;;;;;;;4989147;28;20073;-48
2021/08/06 11:55:17;;;;;;;1.40;0.50;;;;;;;;;;4989688;28;20053;-51
2021/08/06 11:57:51;;;;;;;4.03;0.50;;;;;;;;;;4975878;28;20041;-46
2021/08/06 12:00:20;;;;;;;0.40;0.40;;;;;;;;;;5001418;28;20042;-52
2021/08/06 12:02:58;;;;;;;2.60;0.73;;;;;;;;;;4991017;28;20739;-50
2021/08/06 12:05:25;;;;;;;0.60;0.50;;;;;;;;;;4987175;28;20108;-48
2021/08/06 12:07:51;;;;;;;1.17;0.50;;;;;;;;;;4985766;28;20801;-48
2021/08/06 12:10:23;;;;;;;3.17;1.50;;;;;;;;;;4975487;28;20096;-50
2021/08/06 12:12:50;;;;;;;0.68;0.40;;;;;;;;;;4958722;28;20063;-48
2021/08/06 12:15:24;;;;;;;0.93;0.75;;;;;;;;;;4971183;28;20133;-44
2021/08/06 12:18:10;;;;;;;0.50;0.50;;;;;;;;;;4986776;28;20046;-50
2021/08/06 12:20:38;;;;;;;2.33;0.80;;;;;;;;;;4993427;28;20467;-47
2021/08/06 12:23:05;;;;;;;1.02;0.40;;;;;;;;;;5004791;28;20042;-47
2021/08/06 12:25:32;;;;;;;0.75;0.45;;;;;;;;;;4993753;28;20129;-49
2021/08/06 12:28:00;;;;;;;3.80;0.50;;;;;;;;;;5005298;28;20117;-46
2021/08/06 12:30:28;;;;;;;0.80;0.80;;;;;;;;;;5006844;28;20050;-46
2021/08/06 12:32:56;;;;;;;2.63;0.75;;;;;;;;;;5009207;28;20042;-48
2021/08/06 12:35:24;;;;;;;0.65;0.40;;;;;;;;;;5003981;28;20050;-47
2021/08/06 12:37:51;;;;;;;1.02;0.40;;;;;;;;;;5014443;28;20042;-47
2021/08/06 12:40:19;;;;;;;1.45;0.45;;;;;;;;;;5014366;28;20044;-49
2021/08/06 12:42:46;;;;;;;0.50;0.50;;;;;;;;;;5000267;28;20041;-47
2021/08/06 12:45:18;;;;;;;0.68;0.45;;;;;;;;;;5008287;28;20049;-48
2021/08/06 12:47:45;;;;;;;1.08;0.43;;;;;;;;;;5008157;28;20083;-45
2021/08/06 12:50:13;;;;;;;4.72;0.40;;;;;;;;;;5006916;28;20046;-47
2021/08/06 12:52:42;;;;;;;0.75;0.50;;;;;;;;;;4997022;28;20038;-48
2021/08/06 12:55:11;;;;;;;2.28;0.50;;;;;;;;;;5007763;28;20034;-46
2021/08/06 12:57:44;;;;;;;0.73;0.50;;;;;;;;;;5001220;28;20041;-49
2021/08/06 13:00:12;;;;;;;0.98;0.50;;;;;;;;;;5008592;28;20639;-47
2021/08/06 13:02:39;;;;;;;1.55;0.60;;;;;;;;;;5007389;28;20046;-46
2021/08/06 13:05:08;;;;;;;1.77;0.60;;;;;;;;;;4995479;28;20057;-47
2021/08/06 13:07:35;;;;;;;1.95;0.60;;;;;;;;;;5002748;28;20138;-46
2021/08/06 13:10:02;;;;;;;1.23;0.45;;;;;;;;;;4998252;28;20538;-49
2021/08/06 13:12:30;;;;;;;0.85;0.40;;;;;;;;;;5009453;28;20053;-48
2021/08/06 13:14:57;;;;;;;0.98;0.52;;;;;;;;;;5010235;28;20046;-45
2021/08/06 13:17:24;;;;;;;2.03;0.50;;;;;;;;;;5008907;28;20042;-46
2021/08/06 13:19:51;;;;;;;2.30;0.45;;;;;;;;;;5001378;28;20061;-46
2021/08/06 13:22:20;;;;;;;1.38;0.50;;;;;;;;;;4994371;28;20088;-50
2021/08/06 13:24:49;;;;;;;0.40;0.40;;;;;;;;;;5008203;28;20053;-48
2021/08/06 13:27:16;;;;;;;0.70;0.40;;;;;;;;;;5003022;28;20049;-47
2021/08/06 13:29:43;;;;;;;0.73;0.50;;;;;;;;;;4992057;28;20038;-47
2021/08/06 13:32:09;;;;;;;0.70;0.50;;;;;;;;;;5005591;28;20050;-49
2021/08/06 13:34:36;;;;;;;0.70;0.50;;;;;;;;;;4999559;28;20104;-46
2021/08/06 13:37:04;;;;;;;0.50;0.50;;;;;;;;;;5000885;28;20049;-46
2021/08/06 13:39:31;;;;;;;0.80;0.50;;;;;;;;;;5007386;28;20538;-46
2021/08/06 13:42:03;;;;;;;0.80;0.60;;;;;;;;;;5002852;28;20030;-46
2021/08/06 13:44:30;;;;;;;1.08;0.40;;;;;;;;;;5011577;28;20132;-47
2021/08/06 13:46:56;;;;;;;0.90;0.50;;;;;;;;;;5010800;28;20607;-49
2021/08/06 13:49:23;;;;;;;2.10;0.80;;;;;;;;;;4998604;28;20046;-50
2021/08/06 13:51:50;;;;;;;0.90;0.50;;;;;;;;;;5007433;28;20063;-49
2021/08/06 13:54:18;;;;;;;1.40;0.50;;;;;;;;;;5009569;28;20438;-47
2021/08/06 13:56:45;;;;;;;0.70;0.60;;;;;;;;;;5012417;28;20586;-47
2021/08/06 13:59:12;;;;;;;1.67;0.50;;;;;;;;;;5011395;28;20053;-48
2021/08/06 14:01:40;;;;;;;4.07;0.60;;;;;;;;;;5000951;28;20050;-50
2021/08/06 14:04:07;;;;;;;2.08;0.40;;;;;;;;;;5011266;28;20524;-49
2021/08/06 14:06:33;;;;;;;0.65;0.50;;;;;;;;;;5010072;28;20061;-47
2021/08/06 14:09:00;;;;;;;0.65;0.50;;;;;;;;;;5002804;28;20038;-46
2021/08/06 14:11:47;;;;;;;0.60;0.60;;;;;;;;;;5010679;28;20146;-47
2021/08/06 14:14:14;;;;;;;0.60;0.50;;;;;;;;;;4999996;28;20124;-48
2021/08/06 14:16:41;;;;;;;0.40;0.40;;;;;;;;;;5012799;28;20038;-49
2021/08/06 14:19:08;;;;;;;2.65;0.50;;;;;;;;;;5009783;28;20042;-45
2021/08/06 14:21:35;;;;;;;1.25;0.50;;;;;;;;;;5012627;28;20038;-47
2021/08/06 14:24:03;;;;;;;1.42;0.50;;;;;;;;;;5008610;28;20038;-46
2021/08/06 14:26:30;;;;;;;1.05;0.50;;;;;;;;;;4995720;28;20042;-46
2021/08/06 14:28:57;;;;;;;1.48;0.40;;;;;;;;;;5007322;28;20422;-47
2021/08/06 14:31:24;;;;;;;0.70;0.50;;;;;;;;;;5008752;28;20047;-47
2021/08/06 14:33:50;;;;;;;1.13;0.60;;;;;;;;;;5027586;28;20033;-49
2021/08/06 14:36:19;;;;;;;1.65;0.95;;;;;;;;;;5011048;28;20053;-46
2021/08/06 14:38:46;;;;;;;0.98;0.50;;;;;;;;;;5014655;28;20034;-48
2021/08/06 14:41:13;;;;;;;0.50;0.50;;;;;;;;;;5011084;28;20033;-47
2021/08/06 14:43:39;;;;;;;3.33;0.50;;;;;;;;;;5004215;28;20037;-49
2021/08/06 14:46:06;;;;;;;1.25;0.50;;;;;;;;;;5011928;28;20536;-47
2021/08/06 14:48:34;;;;;;;1.27;0.40;;;;;;;;;;5006827;28;20034;-46
2021/08/06 14:51:01;;;;;;;0.60;0.50;;;;;;;;;;4995984;28;20042;-46